Time;durP1;ratioP1;P1;durP2;ratioP2;P2;SDS_P1;SDS_P2;PMS_P1;PMS_P2;Temp;Humidity;BMP_temperature;BMP_pressure;BME280_temperature;BME280_humidity;BME280_pressure;Samples;Min_cycle;Max_cycle;Signal;HPM_P1;HPM_P2
2022/10/15 00:00:08;;;;;;;4.50;0.70;;;15.90;99.90;;;;;;5090103;28;20374;-56
2022/10/15 00:02:33;;;;;;;4.57;1.00;;;15.90;99.90;;;;;;5090010;28;20735;-56
2022/10/15 00:04:59;;;;;;;4.20;0.77;;;15.90;99.90;;;;;;5090086;28;20394;-56
2022/10/15 00:07:25;;;;;;;4.20;0.90;;;15.80;99.90;;;;;;5089113;28;20386;-56
2022/10/15 00:09:50;;;;;;;3.70;0.60;;;15.80;99.90;;;;;;5089898;28;20661;-57
2022/10/15 00:12:16;;;;;;;4.00;0.70;;;15.80;99.90;;;;;;5089655;28;20390;-58
2022/10/15 00:14:41;;;;;;;4.33;0.87;;;15.80;99.90;;;;;;5089677;28;20397;-56
2022/10/15 00:17:07;;;;;;;4.45;0.90;;;15.80;99.90;;;;;;5089490;28;20374;-57
2022/10/15 00:19:33;;;;;;;4.00;0.80;;;15.90;99.90;;;;;;5088960;28;20378;-56
2022/10/15 00:21:58;;;;;;;4.93;1.00;;;15.90;99.90;;;;;;5089912;28;20393;-56
2022/10/15 00:24:24;;;;;;;5.20;0.70;;;15.90;99.90;;;;;;5089205;28;20462;-56
2022/10/15 00:26:50;;;;;;;3.80;0.70;;;15.80;99.90;;;;;;5097084;28;20890;-56
2022/10/15 00:29:15;;;;;;;4.00;0.80;;;15.80;99.90;;;;;;5089829;28;20378;-58
2022/10/15 00:31:41;;;;;;;3.50;0.60;;;15.80;99.90;;;;;;5089063;28;20444;-56
2022/10/15 00:34:06;;;;;;;4.00;0.70;;;15.70;99.90;;;;;;5089787;28;20397;-57
2022/10/15 00:36:35;;;;;;;3.90;0.70;;;15.80;99.90;;;;;;5089434;28;20378;-56
2022/10/15 00:39:02;;;;;;;3.60;0.60;;;15.80;99.90;;;;;;5089649;28;20378;-56
2022/10/15 00:41:34;;;;;;;3.90;0.95;;;15.80;99.90;;;;;;5086972;28;20904;-56
2022/10/15 00:44:21;;;;;;;3.80;0.60;;;15.80;99.90;;;;;;5090525;28;20404;-56
2022/10/15 00:46:50;;;;;;;6.50;0.80;;;15.80;99.90;;;;;;5081858;28;20383;-56
2022/10/15 00:49:23;;;;;;;3.60;0.50;;;15.80;99.90;;;;;;5089555;28;20366;-58
2022/10/15 00:52:02;;;;;;;4.28;0.60;;;15.80;99.90;;;;;;5087581;28;20377;-56
2022/10/15 00:54:31;;;;;;;3.83;0.60;;;15.80;99.90;;;;;;5086508;28;20859;-56
2022/10/15 00:56:58;;;;;;;5.10;0.65;;;15.80;99.90;;;;;;5085108;28;20402;-56
2022/10/15 00:59:26;;;;;;;3.60;0.50;;;15.80;99.90;;;;;;5086244;28;20413;-56
2022/10/15 01:01:51;;;;;;;3.85;0.80;;;15.80;99.90;;;;;;5089479;28;20382;-56
2022/10/15 01:04:17;;;;;;;4.30;0.50;;;15.80;99.90;;;;;;5088743;28;20436;-57
2022/10/15 01:06:44;;;;;;;4.20;0.55;;;17.80;99.90;;;;;;5089141;28;20815;-56
2022/10/15 01:09:11;;;;;;;3.80;0.57;;;15.90;99.90;;;;;;5089592;28;20369;-56
2022/10/15 01:11:47;;;;;;;3.60;0.60;;;15.90;99.90;;;;;;5088520;28;20391;-56
2022/10/15 01:14:46;;;;;;;5.10;0.60;;;15.90;99.90;;;;;;5087892;28;20474;-57
2022/10/15 01:17:12;;;;;;;3.80;0.60;;;15.80;99.90;;;;;;5087273;28;20432;-56
2022/10/15 01:20:02;;;;;;;3.50;0.50;;;15.80;99.90;;;;;;5088763;28;20386;-56
2022/10/15 01:22:34;;;;;;;3.60;0.53;;;15.80;99.90;;;;;;5086119;28;20378;-56
2022/10/15 01:25:18;;;;;;;6.93;0.93;;;15.80;99.90;;;;;;5088754;28;20432;-56
2022/10/15 01:28:10;;;;;;;3.40;0.50;;;15.90;99.90;;;;;;5089022;28;20379;-56
2022/10/15 01:30:40;;;;;;;3.60;0.60;;;15.80;99.90;;;;;;5042795;28;20815;-56
2022/10/15 01:33:41;;;;;;;3.60;0.50;;;15.80;99.90;;;;;;5092222;28;20748;-56
2022/10/15 01:36:38;;;;;;;3.45;0.40;;;15.90;99.90;;;;;;5090477;28;20396;-56
2022/10/15 01:39:14;;;;;;;3.60;0.50;;;15.90;99.90;;;;;;5092169;28;20382;-56
2022/10/15 01:41:46;;;;;;;3.60;0.50;;;15.90;99.90;;;;;;5092325;28;20404;-56
2022/10/15 01:44:14;;;;;;;3.50;0.50;;;15.80;99.90;;;;;;5090943;28;20402;-56
2022/10/15 01:46:44;;;;;;;3.50;0.50;;;15.80;99.90;;;;;;5092208;28;20393;-56
2022/10/15 01:49:12;;;;;;;3.40;0.50;;;15.80;99.90;;;;;;5091164;28;20382;-56
2022/10/15 01:51:41;;;;;;;3.50;0.60;;;15.80;99.90;;;;;;5092537;28;20374;-56
2022/10/15 01:54:13;;;;;;;3.60;0.65;;;15.80;99.90;;;;;;5089566;28;20811;-56
2022/10/15 01:56:41;;;;;;;4.20;0.40;;;15.80;99.90;;;;;;5092266;28;20370;-56
2022/10/15 01:59:08;;;;;;;3.60;0.60;;;15.80;99.90;;;;;;5090047;28;20384;-56
2022/10/15 02:01:34;;;;;;;4.20;0.50;;;15.90;99.90;;;;;;5091886;28;20435;-56
2022/10/15 02:04:00;;;;;;;3.30;0.50;;;15.80;99.90;;;;;;5092998;28;20401;-56
2022/10/15 02:06:25;;;;;;;3.80;0.40;;;15.80;99.90;;;;;;5092258;28;20379;-56
2022/10/15 02:09:36;;;;;;;3.80;0.50;;;15.80;99.90;;;;;;5092543;28;20454;-56
2022/10/15 02:12:09;;;;;;;3.80;0.57;;;15.90;99.90;;;;;;5001667;28;20964;-56
2022/10/15 02:15:00;;;;;;;4.72;0.50;;;15.80;99.90;;;;;;5075751;28;20393;-56
2022/10/15 02:17:34;;;;;;;4.30;0.50;;;15.80;99.90;;;;;;5091388;28;20457;-56
2022/10/15 02:20:26;;;;;;;3.40;0.50;;;15.80;99.90;;;;;;5092024;28;20463;-57
2022/10/15 02:23:02;;;;;;;3.30;0.40;;;16.00;99.90;;;;;;5090104;28;20375;-56
2022/10/15 02:25:28;;;;;;;3.60;0.70;;;16.00;99.90;;;;;;5098963;28;20459;-56
2022/10/15 02:27:56;;;;;;;3.80;0.50;;;16.00;99.90;;;;;;5092251;28;20370;-57
2022/10/15 02:30:23;;;;;;;3.40;0.50;;;16.10;99.90;;;;;;5091407;28;20374;-57
2022/10/15 02:32:55;;;;;;;3.60;0.60;;;16.20;99.90;;;;;;5091906;28;20464;-56
2022/10/15 02:35:22;;;;;;;4.03;0.50;;;16.20;99.90;;;;;;5091984;28;20456;-56
2022/10/15 02:37:51;;;;;;;4.40;0.70;;;16.10;99.90;;;;;;5092174;28;20375;-56
2022/10/15 02:40:21;;;;;;;3.65;0.60;;;16.00;99.90;;;;;;5090777;28;20867;-57
2022/10/15 02:42:49;;;;;;;3.60;0.60;;;16.00;99.90;;;;;;5091974;28;20397;-57
2022/10/15 02:45:15;;;;;;;3.80;0.60;;;16.00;99.90;;;;;;5091821;28;20406;-57
2022/10/15 02:47:40;;;;;;;3.70;0.70;;;16.00;99.90;;;;;;5090995;28;20389;-56
2022/10/15 02:50:06;;;;;;;5.00;0.70;;;16.00;99.90;;;;;;5091653;28;20390;-57
2022/10/15 02:52:32;;;;;;;3.88;0.80;;;16.00;99.90;;;;;;5090913;28;20374;-56
2022/10/15 02:54:57;;;;;;;3.90;0.60;;;16.10;99.90;;;;;;5091681;28;20409;-56
2022/10/15 02:57:23;;;;;;;4.10;0.73;;;16.00;99.90;;;;;;5090648;28;20823;-56
2022/10/15 02:59:48;;;;;;;4.30;0.77;;;16.10;99.90;;;;;;5091342;28;20382;-56
2022/10/15 03:02:14;;;;;;;3.50;0.60;;;16.00;99.90;;;;;;5091017;28;20402;-56
2022/10/15 03:04:39;;;;;;;3.50;0.50;;;16.00;99.90;;;;;;5090352;28;20494;-56
2022/10/15 03:07:05;;;;;;;3.90;0.70;;;15.80;99.90;;;;;;5091771;28;20410;-56
2022/10/15 03:09:31;;;;;;;6.30;0.70;;;15.80;99.90;;;;;;5090653;28;20381;-56
2022/10/15 03:11:56;;;;;;;3.40;0.50;;;15.80;99.90;;;;;;5091535;28;20474;-56
2022/10/15 03:14:22;;;;;;;3.80;0.50;;;15.80;99.90;;;;;;5090313;28;20460;-58
2022/10/15 03:16:47;;;;;;;4.40;0.60;;;15.80;99.90;;;;;;5095735;28;20388;-56
2022/10/15 03:19:13;;;;;;;3.30;0.50;;;15.80;99.90;;;;;;5090974;28;20934;-56
2022/10/15 03:21:38;;;;;;;3.80;0.60;;;15.90;99.90;;;;;;5090561;28;20461;-57
2022/10/15 03:24:04;;;;;;;4.32;0.65;;;15.90;99.90;;;;;;5091034;28;20523;-57
2022/10/15 03:26:30;;;;;;;3.50;0.60;;;15.90;99.90;;;;;;5090404;28;20370;-56
2022/10/15 03:28:56;;;;;;;4.40;0.60;;;16.00;99.90;;;;;;5091221;28;20378;-56
2022/10/15 03:31:21;;;;;;;3.55;0.57;;;16.00;99.90;;;;;;5090375;28;20442;-58
2022/10/15 03:33:47;;;;;;;3.30;0.50;;;16.00;99.90;;;;;;5090156;28;20378;-57
2022/10/15 03:36:12;;;;;;;3.43;0.60;;;16.00;99.90;;;;;;5090646;28;20382;-57
2022/10/15 03:38:38;;;;;;;4.10;0.80;;;16.10;99.90;;;;;;5089870;28;20850;-57
2022/10/15 03:41:03;;;;;;;4.10;0.60;;;16.10;99.90;;;;;;5094835;28;20386;-57
2022/10/15 03:43:29;;;;;;;3.43;0.50;;;16.10;99.90;;;;;;5089715;28;20410;-57
2022/10/15 03:45:59;;;;;;;3.90;0.70;;;16.10;99.90;;;;;;5090522;28;20386;-57
2022/10/15 03:48:25;;;;;;;3.40;0.50;;;16.00;99.90;;;;;;5090146;28;20821;-57
2022/10/15 03:50:51;;;;;;;3.30;0.50;;;16.20;99.90;;;;;;5090200;28;20402;-57
2022/10/15 03:53:16;;;;;;;3.50;0.50;;;16.10;99.90;;;;;;5089307;28;20385;-57
2022/10/15 03:55:42;;;;;;;3.43;0.60;;;16.20;99.90;;;;;;5089823;28;20378;-57
2022/10/15 03:58:07;;;;;;;3.70;0.40;;;16.20;99.90;;;;;;5090904;28;20857;-57
2022/10/15 04:00:33;;;;;;;3.30;0.60;;;16.30;99.90;;;;;;5089417;28;20383;-57
2022/10/15 04:02:59;;;;;;;4.83;0.60;;;16.10;99.90;;;;;;5091016;28;20386;-56
2022/10/15 04:05:24;;;;;;;3.20;0.40;;;16.10;99.90;;;;;;5088990;28;20887;-55
2022/10/15 04:07:50;;;;;;;3.45;0.50;;;16.10;99.90;;;;;;5090422;28;20426;-55
2022/10/15 04:10:15;;;;;;;4.65;0.40;;;16.10;99.90;;;;;;5090106;28;20476;-55
2022/10/15 04:12:41;;;;;;;3.27;0.50;;;16.20;99.90;;;;;;5089270;28;20379;-56
2022/10/15 04:15:07;;;;;;;3.40;0.50;;;16.20;99.90;;;;;;5090350;28;20427;-55
2022/10/15 04:17:33;;;;;;;3.30;0.40;;;16.10;99.90;;;;;;5089556;28;20378;-55
2022/10/15 04:19:58;;;;;;;4.20;0.50;;;16.20;99.90;;;;;;5089763;28;20719;-55
2022/10/15 04:22:24;;;;;;;3.60;0.50;;;16.20;99.90;;;;;;5089245;28;20423;-56
2022/10/15 04:24:49;;;;;;;3.30;0.40;;;16.20;99.90;;;;;;5089757;28;20539;-57
2022/10/15 04:27:15;;;;;;;3.30;0.40;;;16.30;99.90;;;;;;5090363;28;20382;-57
2022/10/15 04:29:41;;;;;;;3.30;0.57;;;16.20;99.90;;;;;;5089295;28;20381;-57
2022/10/15 04:32:06;;;;;;;3.30;0.50;;;16.20;99.90;;;;;;5090055;28;20397;-57
2022/10/15 04:34:32;;;;;;;3.20;0.45;;;16.30;99.90;;;;;;5089903;28;20423;-56
2022/10/15 04:36:57;;;;;;;4.00;0.50;;;16.40;99.90;;;;;;5090043;28;20379;-55
2022/10/15 04:39:23;;;;;;;3.30;0.40;;;16.40;99.90;;;;;;5089172;28;20847;-57
2022/10/15 04:41:48;;;;;;;3.30;0.50;;;16.40;99.90;;;;;;5087436;28;20441;-56
2022/10/15 04:44:14;;;;;;;3.80;0.50;;;16.40;99.90;;;;;;5089594;28;20402;-55
2022/10/15 04:46:40;;;;;;;3.60;0.50;;;16.40;99.90;;;;;;5089516;28;20457;-55
2022/10/15 04:49:05;;;;;;;3.40;0.40;;;16.50;99.90;;;;;;5089566;28;20374;-55
2022/10/15 04:51:31;;;;;;;3.40;0.40;;;16.50;99.90;;;;;;5089132;28;20366;-55
2022/10/15 04:53:56;;;;;;;3.33;0.40;;;16.50;99.90;;;;;;5089455;28;20735;-55
2022/10/15 04:56:22;;;;;;;4.00;0.32;;;16.40;99.90;;;;;;5088779;28;20390;-57
2022/10/15 04:58:49;;;;;;;3.30;0.40;;;16.50;99.90;;;;;;5088941;28;20392;-56
2022/10/15 05:01:17;;;;;;;3.70;0.55;;;16.60;99.90;;;;;;5089592;28;20390;-56
2022/10/15 05:03:45;;;;;;;3.30;0.40;;;16.50;99.90;;;;;;5089496;28;20422;-55
2022/10/15 05:06:14;;;;;;;3.30;0.40;;;16.50;99.90;;;;;;5093416;28;20390;-56
2022/10/15 05:08:42;;;;;;;6.60;0.35;;;16.40;99.90;;;;;;5093434;28;20416;-55
2022/10/15 05:11:12;;;;;;;5.60;0.40;;;16.40;99.90;;;;;;5090929;28;20719;-55
2022/10/15 05:13:37;;;;;;;3.60;0.43;;;16.40;99.90;;;;;;5092742;28;20378;-55
2022/10/15 05:16:20;;;;;;;3.55;0.60;;;16.50;99.90;;;;;;5094153;28;20933;-55
2022/10/15 05:18:49;;;;;;;4.70;0.30;;;16.40;99.90;;;;;;5093581;28;20420;-56
2022/10/15 05:21:15;;;;;;;7.60;0.57;;;16.40;99.90;;;;;;5093347;28;20435;-56
2022/10/15 05:23:42;;;;;;;3.80;0.40;;;16.40;99.90;;;;;;5092538;28;20472;-56
2022/10/15 05:26:11;;;;;;;3.60;0.40;;;16.50;99.90;;;;;;5091071;28;20381;-56
2022/10/15 05:28:37;;;;;;;4.20;0.40;;;16.40;99.90;;;;;;5092595;28;20439;-56
2022/10/15 05:31:08;;;;;;;3.50;0.40;;;16.60;99.90;;;;;;5092622;28;20397;-56
2022/10/15 05:33:34;;;;;;;3.30;0.40;;;16.60;99.90;;;;;;5092224;28;20385;-56
2022/10/15 05:36:20;;;;;;;3.20;0.40;;;16.50;99.90;;;;;;5092520;28;20850;-56
2022/10/15 05:38:48;;;;;;;3.70;0.40;;;16.60;99.90;;;;;;5092653;28;20375;-56
2022/10/15 05:41:14;;;;;;;3.50;0.30;;;16.60;99.90;;;;;;5092569;28;20378;-56
2022/10/15 05:43:40;;;;;;;3.40;0.30;;;16.60;99.90;;;;;;5092022;28;20690;-56
2022/10/15 05:46:06;;;;;;;3.72;0.40;;;16.60;99.90;;;;;;5093172;28;20818;-56
2022/10/15 05:48:32;;;;;;;3.50;0.40;;;16.60;99.90;;;;;;5092205;28;20405;-56
2022/10/15 05:51:06;;;;;;;3.70;0.60;;;16.60;99.90;;;;;;5092790;28;20715;-56
2022/10/15 05:53:32;;;;;;;3.50;0.50;;;16.60;99.90;;;;;;5092617;28;20844;-55
2022/10/15 05:55:58;;;;;;;4.00;0.50;;;16.60;99.90;;;;;;5092720;28;20385;-56
2022/10/15 05:58:25;;;;;;;3.60;0.50;;;16.60;99.90;;;;;;5091524;28;20382;-56
2022/10/15 06:00:55;;;;;;;3.70;0.50;;;16.70;99.90;;;;;;5092372;28;20463;-56
2022/10/15 06:03:21;;;;;;;3.60;0.50;;;16.70;99.90;;;;;;5091010;28;20870;-57
2022/10/15 06:05:47;;;;;;;3.50;0.50;;;16.70;99.90;;;;;;5085519;28;20389;-56
2022/10/15 06:08:13;;;;;;;3.60;0.50;;;16.70;99.90;;;;;;5092839;28;20378;-56
2022/10/15 06:10:41;;;;;;;4.30;0.60;;;16.80;99.90;;;;;;5091508;28;20378;-56
2022/10/15 06:13:08;;;;;;;5.20;0.60;;;16.80;99.90;;;;;;5092611;28;20438;-56
2022/10/15 06:15:33;;;;;;;3.50;0.50;;;16.80;99.90;;;;;;5090171;28;20472;-56
2022/10/15 06:17:59;;;;;;;3.50;0.50;;;16.90;99.90;;;;;;5092535;28;20825;-56
2022/10/15 06:20:26;;;;;;;3.90;0.60;;;16.90;99.90;;;;;;5091046;28;20469;-57
2022/10/15 06:22:57;;;;;;;5.40;0.85;;;16.90;99.90;;;;;;5092312;28;20378;-56
2022/10/15 06:25:22;;;;;;;4.00;0.60;;;16.90;99.90;;;;;;5091737;28;20393;-57
2022/10/15 06:27:48;;;;;;;3.80;0.60;;;16.90;99.90;;;;;;5086031;28;20784;-56
2022/10/15 06:30:14;;;;;;;5.90;0.50;;;16.90;99.90;;;;;;5087990;28;20386;-56
2022/10/15 06:32:45;;;;;;;4.50;0.70;;;16.90;99.90;;;;;;5091636;28;20805;-56
2022/10/15 06:35:10;;;;;;;3.95;0.55;;;16.90;99.90;;;;;;5092265;28;20414;-56
2022/10/15 06:37:36;;;;;;;5.00;0.60;;;16.90;99.90;;;;;;5091877;28;20406;-56
2022/10/15 06:40:02;;;;;;;3.80;0.70;;;16.90;99.90;;;;;;5092350;28;20385;-56
2022/10/15 06:42:28;;;;;;;3.72;0.80;;;16.90;99.90;;;;;;5091316;28;20431;-56
2022/10/15 06:44:53;;;;;;;4.50;0.70;;;16.90;99.90;;;;;;5092017;28;20398;-56
2022/10/15 06:47:19;;;;;;;3.93;0.70;;;16.90;99.90;;;;;;5092247;28;20378;-56
2022/10/15 06:49:44;;;;;;;3.90;0.70;;;16.80;99.90;;;;;;5090589;28;20505;-56
2022/10/15 06:52:10;;;;;;;4.20;0.90;;;16.80;99.90;;;;;;5091617;28;20382;-56
2022/10/15 06:54:35;;;;;;;3.63;0.52;;;16.90;99.90;;;;;;5091609;28;20862;-56
2022/10/15 06:57:01;;;;;;;4.20;0.77;;;16.90;99.90;;;;;;5090451;28;20385;-56
2022/10/15 06:59:27;;;;;;;6.70;0.80;;;16.90;99.90;;;;;;5086298;28;20409;-57
2022/10/15 07:01:52;;;;;;;4.90;0.60;;;17.00;99.90;;;;;;5091818;28;20443;-56
2022/10/15 07:04:18;;;;;;;5.20;0.85;;;17.00;99.90;;;;;;5095061;28;20494;-56
2022/10/15 07:06:44;;;;;;;4.20;0.60;;;17.00;99.90;;;;;;5090479;28;20390;-56
2022/10/15 07:09:09;;;;;;;4.10;0.85;;;17.10;99.90;;;;;;5091132;28;20717;-56
2022/10/15 07:11:35;;;;;;;4.15;0.80;;;17.20;99.90;;;;;;5090389;28;20367;-56
2022/10/15 07:14:01;;;;;;;4.60;1.10;;;17.20;99.90;;;;;;5091167;28;20436;-56
2022/10/15 07:16:27;;;;;;;4.80;0.70;;;17.10;99.90;;;;;;5090218;28;20409;-56
2022/10/15 07:18:52;;;;;;;4.00;0.80;;;17.10;99.90;;;;;;5090970;28;20401;-56
2022/10/15 07:21:18;;;;;;;5.90;0.80;;;17.30;99.90;;;;;;5090746;28;20697;-55
2022/10/15 07:23:43;;;;;;;4.17;0.87;;;17.10;99.90;;;;;;5090133;28;20393;-55
2022/10/15 07:26:09;;;;;;;4.30;0.70;;;17.30;99.90;;;;;;5090622;28;20382;-55
2022/10/15 07:28:34;;;;;;;3.90;0.70;;;17.40;99.90;;;;;;5090121;28;20373;-56
2022/10/15 07:31:02;;;;;;;6.30;1.00;;;17.50;99.90;;;;;;5090382;28;20390;-55
2022/10/15 07:33:28;;;;;;;4.00;0.80;;;17.60;99.90;;;;;;5090023;28;20863;-55
2022/10/15 07:35:54;;;;;;;4.00;0.87;;;17.80;99.90;;;;;;5090408;28;20394;-55
2022/10/15 07:38:20;;;;;;;5.90;1.00;;;18.00;99.90;;;;;;5090171;28;20449;-55
2022/10/15 07:40:46;;;;;;;4.30;0.77;;;18.10;99.90;;;;;;5089916;28;20414;-55
2022/10/15 07:43:12;;;;;;;4.50;0.80;;;18.30;99.90;;;;;;5090556;28;20855;-55
2022/10/15 07:45:38;;;;;;;4.82;0.85;;;18.40;81.50;;;;;;5089713;28;20527;-55
2022/10/15 07:48:04;;;;;;;4.00;0.80;;;18.40;1.00;;;;;;5090619;28;20762;-55
2022/10/15 07:50:29;;;;;;;5.93;0.90;;;18.40;1.00;;;;;;5071881;28;20709;-55
2022/10/15 07:52:55;;;;;;;5.10;0.75;;;18.40;1.00;;;;;;5090699;28;20397;-55
2022/10/15 07:55:21;;;;;;;4.20;0.90;;;18.30;1.00;;;;;;5080206;28;20426;-55
2022/10/15 07:57:46;;;;;;;4.70;1.20;;;18.30;1.00;;;;;;5080541;28;20382;-55
2022/10/15 08:00:12;;;;;;;5.00;1.03;;;18.30;1.00;;;;;;5081870;28;20386;-55
2022/10/15 08:02:38;;;;;;;4.70;1.27;;;18.30;1.00;;;;;;5087168;28;20394;-58
2022/10/15 08:05:04;;;;;;;4.40;1.20;;;18.20;1.00;;;;;;5084274;28;20432;-58
2022/10/15 08:07:30;;;;;;;4.72;1.20;;;18.10;1.00;;;;;;5089116;28;20374;-57
2022/10/15 08:09:55;;;;;;;4.80;1.20;;;18.10;1.00;;;;;;5090609;28;20427;-57
2022/10/15 08:12:21;;;;;;;8.67;1.13;;;18.10;1.00;;;;;;5081919;28;20864;-57
2022/10/15 08:14:46;;;;;;;5.43;1.13;;;17.90;1.00;;;;;;5104179;28;20510;-57
2022/10/15 08:17:12;;;;;;;4.60;0.80;;;17.70;14.50;;;;;;5110617;28;20862;-61
2022/10/15 08:19:38;;;;;;;4.78;0.80;;;17.40;99.90;;;;;;5110163;28;20451;-57
2022/10/15 08:22:04;;;;;;;4.20;0.70;;;17.50;99.90;;;;;;5111067;28;20364;-57
2022/10/15 08:24:30;;;;;;;4.05;0.80;;;17.50;99.90;;;;;;5091564;28;20441;-57
2022/10/15 08:26:57;;;;;;;4.97;1.10;;;17.50;99.90;;;;;;5086649;28;20458;-56
2022/10/15 08:29:23;;;;;;;4.30;1.00;;;17.60;99.90;;;;;;5073694;28;20390;-55
2022/10/15 08:31:49;;;;;;;4.10;0.80;;;18.50;99.90;;;;;;5083508;28;20415;-57
2022/10/15 08:34:15;;;;;;;5.13;0.90;;;17.60;70.90;;;;;;5089532;28;20394;-56
2022/10/15 08:36:41;;;;;;;5.30;0.95;;;17.60;68.00;;;;;;5083188;28;20387;-57
2022/10/15 08:39:08;;;;;;;4.15;0.90;;;17.70;20.20;;;;;;5084628;28;20498;-56
2022/10/15 08:41:53;;;;;;;4.75;0.85;;;17.70;15.70;;;;;;5073682;28;20374;-56
2022/10/15 08:44:33;;;;;;;4.43;1.00;;;17.60;11.60;;;;;;5080577;28;20395;-59
2022/10/15 08:47:07;;;;;;;4.68;1.17;;;17.60;62.10;;;;;;5081452;28;20382;-56
2022/10/15 08:49:52;;;;;;;5.45;1.10;;;17.70;57.50;;;;;;5081880;28;20388;-56
2022/10/15 08:52:24;;;;;;;5.00;1.30;;;17.60;70.50;;;;;;5083785;28;20423;-57
2022/10/15 08:54:52;;;;;;;5.50;0.93;;;17.60;94.80;;;;;;5070960;28;20424;-57
2022/10/15 08:57:36;;;;;;;4.40;0.98;;;17.50;99.90;;;;;;5082029;28;20402;-57
2022/10/15 09:00:27;;;;;;;4.47;1.00;;;17.50;99.90;;;;;;5094811;28;20388;-57
2022/10/15 09:03:14;;;;;;;5.70;0.87;;;17.60;99.90;;;;;;5082832;28;20382;-57
2022/10/15 09:05:51;;;;;;;5.60;1.10;;;17.70;72.50;;;;;;5085715;28;20417;-57
2022/10/15 09:08:23;;;;;;;5.07;1.13;;;17.80;99.80;;;;;;5086658;28;20382;-57
2022/10/15 09:10:58;;;;;;;5.00;0.82;;;18.00;29.30;;;;;;5085527;28;20469;-56
2022/10/15 09:13:26;;;;;;;8.07;1.20;;;18.10;1.00;;;;;;5079025;28;20375;-61
2022/10/15 09:16:15;;;;;;;5.20;0.88;;;18.10;1.00;;;;;;5081511;28;20389;-59
2022/10/15 09:18:45;;;;;;;4.07;0.70;;;18.10;14.20;;;;;;5081818;28;20388;-56
2022/10/15 09:21:12;;;;;;;4.68;0.73;;;18.10;1.00;;;;;;5075322;28;20889;-57
2022/10/15 09:23:40;;;;;;;4.95;1.10;;;18.30;1.00;;;;;;5076756;28;20418;-59
2022/10/15 09:26:21;;;;;;;3.95;0.80;;;18.40;1.00;;;;;;5081377;28;20431;-56
2022/10/15 09:29:05;;;;;;;4.40;0.80;;;18.60;1.00;;;;;;5081408;28;20387;-57
2022/10/15 09:32:00;;;;;;;5.37;1.00;;;18.50;1.00;;;;;;5080988;28;20405;-57
2022/10/15 09:34:41;;;;;;;5.30;1.10;;;18.70;1.00;;;;;;5072406;28;20425;-62
2022/10/15 09:37:20;;;;;;;4.45;0.80;;;18.80;1.00;;;;;;5080895;28;20398;-57
2022/10/15 09:40:22;;;;;;;4.60;1.00;;;18.90;1.00;;;;;;5081381;28;20375;-57
2022/10/15 09:42:51;;;;;;;5.00;1.00;;;18.90;1.00;;;;;;5087348;28;20430;-56
2022/10/15 09:45:18;;;;;;;4.60;1.10;;;19.10;1.00;;;;;;5089560;28;20479;-57
2022/10/15 09:47:44;;;;;;;4.78;0.90;;;19.10;1.00;;;;;;5087295;28;20394;-56
2022/10/15 09:50:13;;;;;;;4.10;0.80;;;18.80;1.00;;;;;;5088993;28;20390;-55
2022/10/15 09:53:35;;;;;;;4.15;0.90;;;18.70;25.70;;;;;;5092138;28;20438;-56
2022/10/15 09:56:13;;;;;;;4.47;0.90;;;18.60;64.00;;;;;;5030494;28;20387;-56
2022/10/15 09:58:56;;;;;;;3.97;0.75;;;18.60;55.60;;;;;;5003434;28;20398;-55
2022/10/15 10:01:27;;;;;;;5.90;0.80;;;18.30;91.90;;;;;;5074021;28;20796;-55
2022/10/15 10:04:11;;;;;;;4.63;0.90;;;18.40;99.90;;;;;;5089044;28;20406;-56
2022/10/15 10:07:08;;;;;;;5.10;1.00;;;18.60;99.90;;;;;;5087890;28;20415;-56
2022/10/15 10:09:52;;;;;;;4.10;0.85;;;19.00;99.90;;;;;;5081666;28;20872;-57
2022/10/15 10:12:27;;;;;;;4.20;0.80;;;19.40;1.00;;;;;;5091308;28;20378;-57
2022/10/15 10:15:27;;;;;;;4.13;0.80;;;19.40;1.00;;;;;;5091684;28;20436;-56
2022/10/15 10:17:55;;;;;;;3.90;0.60;;;20.10;1.00;;;;;;5092380;28;20874;-56
2022/10/15 10:20:23;;;;;;;5.10;1.20;;;20.20;1.00;;;;;;5092545;28;20747;-56
2022/10/15 10:22:54;;;;;;;4.20;0.90;;;20.70;1.00;;;;;;5091607;28;20366;-56
2022/10/15 10:25:29;;;;;;;4.30;0.90;;;21.70;99.90;;;;;;5091721;28;20430;-57
2022/10/15 10:27:58;;;;;;;4.90;0.70;;;22.90;1.00;;;;;;5092323;28;20657;-59
2022/10/15 10:30:24;;;;;;;4.30;0.70;;;23.00;1.00;;;;;;5092463;28;20444;-59
2022/10/15 10:32:56;;;;;;;4.77;0.80;;;22.70;99.90;;;;;;5091443;28;20401;-56
2022/10/15 10:35:24;;;;;;;4.25;0.80;;;21.90;1.00;;;;;;5092268;28;20385;-56
2022/10/15 10:37:51;;;;;;;4.27;0.70;;;21.20;1.00;;;;;;5091962;28;20381;-56
2022/10/15 10:40:33;;;;;;;4.90;0.70;;;20.30;99.90;;;;;;5092115;28;20378;-56
2022/10/15 10:43:20;;;;;;;5.30;0.70;;;20.00;99.90;;;;;;5092252;28;20846;-56
2022/10/15 10:45:52;;;;;;;4.20;0.70;;;20.20;1.00;;;;;;5091277;28;20429;-56
2022/10/15 10:48:21;;;;;;;4.05;0.68;;;20.60;1.00;;;;;;5092411;28;20843;-57
2022/10/15 10:50:47;;;;;;;4.80;0.80;;;20.70;1.00;;;;;;5091614;28;20677;-56
2022/10/15 10:53:24;;;;;;;4.65;0.82;;;20.90;1.00;;;;;;5092251;28;20715;-56
2022/10/15 10:55:53;;;;;;;5.80;0.90;;;20.80;99.90;;;;;;5091299;28;20401;-56
2022/10/15 10:58:21;;;;;;;4.20;0.70;;;20.50;99.90;;;;;;5091917;28;20374;-56
2022/10/15 11:00:51;;;;;;;4.80;0.80;;;19.80;99.90;;;;;;5090996;28;20374;-56
2022/10/15 11:03:45;;;;;;;5.45;0.70;;;19.80;1.00;;;;;;5094340;28;20403;-56
2022/10/15 11:06:17;;;;;;;5.50;0.70;;;20.00;19.70;;;;;;5089132;28;20410;-56
2022/10/15 11:08:49;;;;;;;5.00;0.70;;;20.00;1.00;;;;;;5094409;28;20414;-56
2022/10/15 11:11:32;;;;;;;3.90;0.50;;;19.80;99.90;;;;;;5091732;28;20386;-56
2022/10/15 11:14:31;;;;;;;5.00;0.70;;;19.80;97.30;;;;;;5103127;28;20378;-56
2022/10/15 11:17:15;;;;;;;4.80;0.80;;;21.10;1.00;;;;;;5108851;28;20372;-56
2022/10/15 11:19:57;;;;;;;5.07;0.90;;;19.60;99.90;;;;;;5111331;28;20372;-56
2022/10/15 11:22:35;;;;;;;4.68;0.70;;;19.70;1.00;;;;;;5111673;28;20385;-56
2022/10/15 11:25:01;;;;;;;4.20;0.63;;;19.80;1.00;;;;;;5111249;28;20407;-56
2022/10/15 11:27:50;;;;;;;4.40;0.90;;;20.00;1.00;;;;;;5111135;28;20459;-58
2022/10/15 11:30:24;;;;;;;4.00;0.60;;;20.10;1.00;;;;;;5111783;28;20404;-58
2022/10/15 11:33:10;;;;;;;4.60;0.90;;;20.10;56.60;;;;;;5104948;28;20950;-58
2022/10/15 11:35:50;;;;;;;4.13;0.60;;;20.20;1.00;;;;;;5088910;28;20750;-58
2022/10/15 11:38:29;;;;;;;5.87;0.90;;;20.10;99.90;;;;;;5090937;28;20412;-57
2022/10/15 11:41:19;;;;;;;7.63;0.70;;;20.10;1.00;;;;;;5073001;28;20810;-57
2022/10/15 11:44:22;;;;;;;4.20;0.63;;;20.20;99.90;;;;;;5069209;28;20387;-58
2022/10/15 11:47:15;;;;;;;4.60;0.80;;;20.30;99.90;;;;;;5069275;28;20383;-57
2022/10/15 11:50:09;;;;;;;6.22;0.90;;;20.40;1.00;;;;;;5081907;28;20389;-58
2022/10/15 11:52:44;;;;;;;4.38;0.80;;;20.30;1.00;;;;;;5087543;28;20408;-59
2022/10/15 11:55:19;;;;;;;5.60;0.95;;;20.60;1.00;;;;;;5097640;28;20384;-58
2022/10/15 11:57:47;;;;;;;4.97;0.70;;;20.40;99.90;;;;;;5107853;28;20384;-58
2022/10/15 12:00:33;;;;;;;5.10;1.00;;;20.30;99.90;;;;;;5086302;28;20370;-58
2022/10/15 12:03:09;;;;;;;4.65;0.90;;;20.20;99.90;;;;;;5077844;28;20386;-57
2022/10/15 12:05:40;;;;;;;5.53;0.80;;;20.30;99.90;;;;;;5080668;28;20487;-58
2022/10/15 12:08:08;;;;;;;5.30;0.80;;;20.10;99.90;;;;;;5084285;28;20455;-57
2022/10/15 12:11:23;;;;;;;4.30;0.70;;;19.90;99.90;;;;;;5078583;28;20414;-57
2022/10/15 12:14:01;;;;;;;4.90;0.80;;;19.50;99.90;;;;;;5015184;28;20433;-57
2022/10/15 12:16:42;;;;;;;4.50;0.90;;;19.60;99.90;;;;;;5077670;28;20404;-58
2022/10/15 12:19:18;;;;;;;4.60;1.20;;;19.60;99.90;;;;;;5087577;28;20384;-57
2022/10/15 12:22:05;;;;;;;5.40;0.90;;;19.50;99.90;;;;;;5079970;28;20760;-57
2022/10/15 12:24:37;;;;;;;5.75;1.02;;;19.50;99.90;;;;;;5086531;28;20409;-57
2022/10/15 12:27:18;;;;;;;4.10;0.60;;;19.20;99.90;;;;;;5090920;28;20532;-57
2022/10/15 12:29:48;;;;;;;4.40;0.77;;;18.80;99.90;;;;;;5100758;28;20917;-57
2022/10/15 12:32:42;;;;;;;5.10;0.90;;;18.80;99.90;;;;;;5098491;28;20441;-56
2022/10/15 12:35:35;;;;;;;4.30;0.80;;;18.80;1.00;;;;;;5097286;28;20394;-56
2022/10/15 12:38:16;;;;;;;4.50;0.90;;;18.80;1.00;;;;;;5087549;28;20471;-56
2022/10/15 12:40:41;;;;;;;4.90;1.00;;;18.70;1.00;;;;;;5088434;28;20378;-56
2022/10/15 12:43:16;;;;;;;5.50;0.80;;;18.80;1.00;;;;;;5093938;28;20391;-56
2022/10/15 12:45:49;;;;;;;5.30;0.77;;;18.60;99.90;;;;;;5086541;28;20410;-56
2022/10/15 12:48:14;;;;;;;4.70;0.90;;;18.70;99.90;;;;;;5087079;28;20457;-56
2022/10/15 12:50:41;;;;;;;5.13;0.97;;;18.80;99.90;;;;;;5089117;28;20754;-56
2022/10/15 12:53:27;;;;;;;4.30;0.80;;;19.10;99.90;;;;;;5089515;28;20863;-57
2022/10/15 12:56:19;;;;;;;4.50;0.95;;;19.20;99.90;;;;;;5086573;28;20382;-56
2022/10/15 12:58:52;;;;;;;4.30;0.77;;;19.40;99.90;;;;;;5088761;28;20416;-57
2022/10/15 13:01:17;;;;;;;4.18;0.60;;;19.40;1.00;;;;;;5089583;28;20455;-56
2022/10/15 13:03:49;;;;;;;4.20;0.90;;;19.30;99.90;;;;;;5088521;28;20891;-56
2022/10/15 13:06:21;;;;;;;4.95;1.00;;;19.30;1.00;;;;;;5087053;28;20469;-56
2022/10/15 13:09:10;;;;;;;4.03;0.70;;;19.30;1.00;;;;;;5088286;28;20378;-56